Vauxhall, New Jersey
Current Conditions -  °F | °C
As of 6:51 AM on Saturday 20 Dec 2014 (Local Time) from KEWR Reporting Station
Overcast Overcast  
Wind Chill: -4°   Ceiling: 2600
Heat Index:   Visibility: 10mi
Dew Point: -6°   Wind: 9mph
Humidity: 64%   Direction: 330°NNW
Pressure: 30.27"   Gusts: NA
Location:  40.73°N, 74.28°W
Report Text: KEWR 201151Z 33008KT 10SM OVC026 00/M06 A3027 RMK AO2 SLP249 T00001061 10000 21006 51015
Loading
Personal Weather Stations






























Interactive Weather Map New forecast layout! Learn more

10-Day Weather Forecast

Advertisements
Track Severe Weather on mobile